Flight Track Log - Related Links

Times and Time Zones

All times are in EDT time to prevent confusion due to time zone crossing. See the FIV606 flight status page for this flight to view local times or setup timezone preferences in your user account.

Time Position Orientation Groundspeed Altitude Reporting Facility
EDT Latitude Longitude Course Direction KTS MPH feet Rate Location/Type
Tue 01:19:11 PM 47.5178 -122.2942 136° Southeast 162 186 1,100  Level Seattle Center
Tue 01:20:19 PM 47.4686 -122.2236 136° Southeast 231 266 4,700 3,721 Climbing Seattle Center
Tue 01:21:20 PM 47.4356 -122.1208 115° Southeast 275 316 9,100 3,669 Climbing Seattle Center
Tue 01:22:20 PM 47.4278 -121.9994 95° East 307 353 12,100 3,223 Climbing Seattle Center
Tue 01:23:21 PM 47.4108 -121.8703 101° East 322 371 15,600 2,803 Climbing Seattle Center
Tue 01:24:22 PM 47.3942 -121.7428 101° East 339 390 17,800 2,361 Climbing Seattle Center
Tue 01:25:23 PM 47.3753 -121.6006 101° East 354 407 20,400 2,361 Climbing Seattle Center
Tue 01:26:24 PM 47.3561 -121.4556 101° East 364 419 22,600 2,066 Climbing Seattle Center
Tue 01:27:25 PM 47.3361 -121.3061 101° East 373 429 24,600 2,066 Climbing Seattle Center
Tue 01:28:26 PM 47.3100 -121.1206 102° East 387 445 26,800 2,066 Climbing Seattle Center
Tue 01:29:27 PM 47.2883 -120.9628 101° East 396 456 28,800 1,869 Climbing Seattle Center
Tue 01:30:28 PM 47.2689 -120.8175 101° East 394 453 30,600 1,721 Climbing Seattle Center
Tue 01:31:29 PM 47.2469 -120.6622 102° East 391 450 32,300 1,835 Climbing Seattle Center
Tue 01:32:29 PM 47.2253 -120.5067 102° East 389 448 34,300 1,785 Climbing Seattle Center
Tue 01:33:30 PM 47.2031 -120.3581 102° East 379 436 35,900 1,475 Climbing Seattle Center
Tue 01:34:31 PM 47.1819 -120.2097 102° East 373 429 37,300 1,279 Climbing Seattle Center
Tue 01:35:32 PM 47.1553 -120.0289 102° East 376 433 38,500 1,082 Climbing Seattle Center
Tue 01:36:33 PM 47.1342 -119.8828 102° East 372 428 39,500 885 Climbing Seattle Center
Tue 01:37:34 PM 47.1108 -119.7369 103° East 370 426 40,300 738 Climbing Seattle Center
Tue 01:38:35 PM 47.0869 -119.5786 102° East 380 437 41,000 344 Climbing Seattle Center
Tue 01:39:36 PM 47.0647 -119.4250 102° East 384 442 41,000  Level Seattle Center
Tue 01:40:37 PM 47.0397 -119.2656 103° East 397 457 41,000  Level Seattle Center
Tue 01:41:38 PM 47.0131 -119.0997 103° East 414 476 41,000  Level Seattle Center
Tue 01:42:38 PM 46.9869 -118.9342 103° East 417 480 41,000  Level Seattle Center
Tue 01:43:39 PM 46.9611 -118.7683 103° East 418 481 41,000  Level Seattle Center
Tue 01:44:40 PM 46.9339 -118.6000 103° East 425 489 41,000  Level Seattle Center
Tue 01:45:41 PM 46.9069 -118.4314 103° East 426 490 41,000  Level Seattle Center
Tue 01:46:42 PM 46.8806 -118.2656 103° East 423 487 41,000  Level Seattle Center
Tue 01:47:43 PM 46.8533 -118.0975 103° East 421 484 41,000  Level Seattle Center
Tue 01:48:44 PM 46.8256 -117.9328 104° East 419 482 41,000  Level Seattle Center
Tue 01:49:45 PM 46.7975 -117.7675 104° East 424 488 41,000  Level Seattle Center
Tue 01:50:46 PM 46.7647 -117.5703 104° East 418 481 41,000  Level Seattle Center
Tue 01:51:47 PM 46.7356 -117.4058 104° East 418 481 41,000  Level Seattle Center
Tue 01:52:48 PM 46.7083 -117.2422 104° East 421 484 41,000  Level Seattle Center
Tue 01:53:48 PM 46.6789 -117.0786 105° East 420 483 41,000  Level Seattle Center
Tue 01:54:49 PM 46.6494 -116.9053 104° East 417 480 41,000  Level Seattle Center
Tue 01:55:50 PM 46.6208 -116.7469 105° East 421 484 41,000  Level Seattle Center
Tue 01:56:51 PM 46.5933 -116.5925 104° East 416 479 41,000  Level Seattle Center
Tue 01:57:52 PM 46.5667 -116.4408 104° East 413 475 41,000  Level Seattle Center
Tue 01:58:53 PM 46.5367 -116.2814 105° East 412 474 41,000  Level Seattle Center
Tue 01:59:54 PM 46.5014 -116.0867 105° East 417 480 41,000  Level Seattle Center
Tue 02:00:55 PM 46.4719 -115.9292 105° East 412 474 41,000  Level Seattle Center
Tue 02:01:56 PM 46.4422 -115.7681 105° East 414 476 41,000  Level Seattle Center
Tue 02:02:57 PM 46.4111 -115.6067 106° East 416 479 41,000  Level Seattle Center
Tue 02:03:58 PM 46.3794 -115.4447 106° East 420 483 41,000  Level Seattle Center
Tue 02:04:59 PM 46.3481 -115.2875 106° East 415 478 41,000  Level Seattle Center
Tue 02:06:00 PM 46.3183 -115.1292 105° East 412 474 41,000  Level Seattle Center
Tue 02:07:06 PM 46.2806 -114.9364 106° East 412 474 41,000  Level Salt Lake Center
Tue 02:08:08 PM 46.2492 -114.7775 106° East 414 476 41,000  Level Salt Lake Center
Tue 02:09:10 PM 46.2175 -114.6183 106° East 413 475 41,000  Level Salt Lake Center
Tue 02:10:12 PM 46.1858 -114.4614 106° East 412 474 41,000  Level Salt Lake Center
Tue 02:11:14 PM 46.1542 -114.3033 106° East 412 474 41,000  Level Salt Lake Center
Tue 02:12:16 PM 46.1214 -114.1481 107° East 410 472 41,000  Level Salt Lake Center
Tue 02:13:18 PM 46.0831 -113.9603 106° East 408 470 41,000  Level Salt Lake Center
Tue 02:14:20 PM 46.0500 -113.8036 107° East 410 472 41,000  Level Salt Lake Center
Tue 02:15:21 PM 46.0175 -113.6472 107° East 411 473 41,000  Level Salt Lake Center
Tue 02:16:23 PM 45.9794 -113.4708 107° East 409 471 41,000  Level Salt Lake Center
Tue 02:17:25 PM 45.9456 -113.3136 107° East 412 474 41,000  Level Salt Lake Center
Tue 02:18:27 PM 45.9108 -113.1556 107° East 414 476 41,000  Level Salt Lake Center
Tue 02:19:29 PM 45.8781 -112.9967 106° East 415 478 41,000  Level Salt Lake Center
Tue 02:20:30 PM 45.8428 -112.8381 108° East 416 479 41,000  Level Salt Lake Center
Tue 02:21:32 PM 45.8092 -112.6811 107° East 413 475 41,000  Level Salt Lake Center
Tue 02:22:34 PM 45.7736 -112.5244 108° East 415 478 41,000  Level Salt Lake Center
Tue 02:23:36 PM 45.7306 -112.3364 108° East 415 478 41,000  Level Salt Lake Center
Tue 02:24:37 PM 45.6967 -112.1783 107° East 416 479 41,000  Level Salt Lake Center
Tue 02:25:39 PM 45.6606 -112.0233 108° East 414 476 41,000  Level Salt Lake Center
Tue 02:26:43 PM 45.6247 -111.8672 108° East 415 478 41,000  Level Salt Lake Center
Tue 02:27:43 PM 45.5900 -111.7100 107° East 417 480 41,000  Level Salt Lake Center
Tue 02:28:44 PM 45.5533 -111.5544 109° East 417 480 41,000  Level Salt Lake Center
Tue 02:29:46 PM 45.5106 -111.3692 108° East 415 478 41,000  Level Salt Lake Center
Tue 02:30:48 PM 45.4739 -111.2150 109° East 416 479 41,000  Level Salt Lake Center
Tue 02:31:50 PM 45.4386 -111.0603 108° East 416 479 41,000  Level Salt Lake Center
Tue 02:32:51 PM 45.4011 -110.9047 109° East 418 481 41,000  Level Salt Lake Center
Tue 02:33:53 PM 45.3636 -110.7503 109° East 416 479 41,000  Level Salt Lake Center
Tue 02:34:55 PM 45.3225 -110.5775 109° East 420 483 41,000  Level Salt Lake Center
Tue 02:35:57 PM 45.2856 -110.4269 109° East 421 484 41,000  Level Salt Lake Center
Tue 02:36:58 PM 45.2428 -110.2519 109° East 421 484 41,000  Level Salt Lake Center
Tue 02:38:00 PM 45.2044 -110.1025 110° East 420 483 41,000  Level Salt Lake Center
Tue 02:39:02 PM 45.1611 -109.9286 109° East 418 481 41,000  Level Salt Lake Center
Tue 02:40:04 PM 45.1247 -109.7778 109° East 422 486 41,000  Level Salt Lake Center
Tue 02:41:05 PM 45.0814 -109.6039 109° East 419 482 41,000  Level Salt Lake Center
Tue 02:42:07 PM 45.0433 -109.4542 110° East 422 486 41,000  Level Salt Lake Center
Tue 02:43:09 PM 44.9989 -109.2806 110° East 422 486 41,000  Level Salt Lake Center
Tue 02:44:11 PM 44.9608 -109.1328 110° East 419 482 41,000  Level Salt Lake Center
Tue 02:45:12 PM 44.9222 -108.9833 110° East 421 484 41,000  Level Salt Lake Center
Tue 02:46:14 PM 44.8758 -108.8103 111° Southeast 422 486 41,000  Level Salt Lake Center
Tue 02:47:16 PM 44.8378 -108.6617 110° East 422 486 41,000  Level Salt Lake Center
Tue 02:48:18 PM 44.7914 -108.4886 111° Southeast 424 488 41,000  Level Salt Lake Center
Tue 02:49:19 PM 44.7514 -108.3406 111° Southeast 425 489 41,000  Level Salt Lake Center
Tue 02:50:21 PM 44.7039 -108.1689 111° Southeast 425 489 41,000  Level Salt Lake Center
Tue 02:51:23 PM 44.6631 -108.0208 111° Southeast 428 493 41,000  Level Salt Lake Center
Tue 02:52:24 PM 44.6178 -107.8486 110° East 428 493 41,000  Level Salt Lake Center
Tue 02:53:26 PM 44.5775 -107.7019 111° Southeast 426 490 41,000  Level Salt Lake Center
Tue 02:54:28 PM 44.5300 -107.5300 111° Southeast 425 489 41,000  Level Salt Lake Center
Tue 02:55:29 PM 44.4892 -107.3822 111° Southeast 427 491 41,000  Level Salt Lake Center
Tue 02:56:31 PM 44.4408 -107.2092 111° Southeast 428 493 41,000  Level Salt Lake Center
Tue 02:57:32 PM 44.3992 -107.0617 112° Southeast 427 491 41,000  Level Salt Lake Center
Tue 02:58:34 PM 44.3572 -106.9139 112° Southeast 428 493 41,000  Level Salt Lake Center
Tue 02:59:36 PM 44.3089 -106.7414 111° Southeast 428 493 41,000  Level Salt Lake Center
Tue 03:00:37 PM 44.2669 -106.5925 111° Southeast 430 495 41,000  Level Salt Lake Center
Tue 03:01:39 PM 44.2172 -106.4189 112° Southeast 432 497 41,000  Level Salt Lake Center
Tue 03:02:40 PM 44.1753 -106.2706 111° Southeast 431 496 41,000  Level Salt Lake Center
Tue 03:03:42 PM 44.1286 -106.1067 112° Southeast 429 494 41,000  Level Salt Lake Center
Tue 03:04:43 PM 44.0847 -105.9594 112° Southeast 430 495 41,000  Level Salt Lake Center
Tue 03:05:50 PM 44.0325 -105.7883 113° Southeast 432 497 41,000  Level Denver Center
Tue 03:06:51 PM 43.9814 -105.6169 112° Southeast 432 497 41,000  Level Denver Center
Tue 03:07:53 PM 43.9381 -105.4689 112° Southeast 432 497 41,000  Level Denver Center
Tue 03:08:55 PM 43.8939 -105.3217 113° Southeast 433 498 41,000  Level Denver Center
Tue 03:09:57 PM 43.8408 -105.1494 113° Southeast 435 501 41,000  Level Denver Center
Tue 03:10:59 PM 43.7964 -105.0011 112° Southeast 435 501 41,000  Level Denver Center
Tue 03:12:00 PM 43.7431 -104.8283 113° Southeast 437 503 41,000  Level Denver Center
Tue 03:13:02 PM 43.6967 -104.6797 113° Southeast 438 504 41,000  Level Denver Center
Tue 03:14:04 PM 43.6425 -104.5061 113° Southeast 439 505 41,000  Level Denver Center
Tue 03:15:06 PM 43.5956 -104.3564 113° Southeast 442 509 41,000  Level Denver Center
Tue 03:16:08 PM 43.5492 -104.2069 113° Southeast 442 509 41,000  Level Denver Center
Tue 03:17:10 PM 43.4928 -104.0322 114° Southeast 445 512 41,000  Level Denver Center
Tue 03:18:11 PM 43.4467 -103.8831 113° Southeast 444 511 41,000  Level Denver Center
Tue 03:19:13 PM 43.3900 -103.7086 114° Southeast 446 513 41,000  Level Denver Center
Tue 03:20:15 PM 43.3414 -103.5581 114° Southeast 447 514 41,000  Level Denver Center
Tue 03:21:17 PM 43.2842 -103.3825 114° Southeast 451 519 41,000  Level Denver Center
Tue 03:22:18 PM 43.2358 -103.2328 114° Southeast 448 516 41,000  Level Denver Center
Tue 03:23:20 PM 43.1864 -103.0822 114° Southeast 451 519 41,000  Level Denver Center
Tue 03:24:22 PM 43.1289 -102.9064 114° Southeast 452 520 41,000  Level Denver Center
Tue 03:25:23 PM 43.0783 -102.7578 115° Southeast 451 519 41,000  Level Denver Center
Tue 03:26:25 PM 43.0192 -102.5811 115° Southeast 456 525 41,000  Level Denver Center
Tue 03:27:27 PM 42.9697 -102.4322 114° Southeast 451 519 41,000  Level Denver Center
Tue 03:28:29 PM 42.9103 -102.2578 115° Southeast 453 521 41,000  Level Denver Center
Tue 03:29:30 PM 42.8592 -102.1092 115° Southeast 452 520 41,000  Level Denver Center
Tue 03:30:32 PM 42.8083 -101.9611 115° Southeast 452 520 41,000  Level Denver Center
Tue 03:31:34 PM 42.7525 -101.7931 114° Southeast 451 519 41,000  Level Denver Center
Tue 03:32:36 PM 42.6917 -101.6219 116° Southeast 451 519 41,000  Level Denver Center
Tue 03:33:37 PM 42.6408 -101.4736 115° Southeast 451 519 41,000  Level Denver Center
Tue 03:34:39 PM 42.5886 -101.3250 115° Southeast 453 521 41,000  Level Denver Center
Tue 03:35:41 PM 42.5278 -101.1525 116° Southeast 455 524 41,000  Level Denver Center
Tue 03:36:43 PM 42.4747 -101.0067 116° Southeast 450 518 41,000  Level Denver Center
Tue 03:37:44 PM 42.4139 -100.8322 115° Southeast 457 526 41,000  Level Denver Center
Tue 03:38:46 PM 42.3606 -100.6839 116° Southeast 458 527 41,000  Level Denver Center
Tue 03:39:48 PM 42.2989 -100.5125 116° Southeast 456 525 41,000  Level Denver Center
Tue 03:40:50 PM 42.2450 -100.3653 116° Southeast 456 525 41,000  Level Denver Center
Tue 03:41:51 PM 42.1919 -100.2172 116° Southeast 457 526 41,000  Level Denver Center
Tue 03:42:36 PM 42.1506 -100.1019 116° Southeast 459 528 41,000  Level Minneapolis Center
Tue 03:42:53 PM 42.1289 -100.0447 117° Southeast 457 526 41,000  Level Denver Center
Tue 03:43:55 PM 42.0750 -99.8983 116° Southeast 456 525 41,000 -439 Level Denver Center
Tue 03:44:56 PM 42.0117 -99.7253 116° Southeast 460 529 40,100 -1,024 Descending Denver Center
Tue 03:45:58 PM 41.9564 -99.5811 117° Southeast 456 525 38,900 -1,161 Descending Denver Center
Tue 03:47:00 PM 41.8981 -99.4228 116° Southeast 469 540 37,700 -1,161 Descending Denver Center
Tue 03:48:02 PM 41.8389 -99.2647 117° Southeast 472 543 36,500 -1,171 Descending Denver Center
Tue 03:49:03 PM 41.7792 -99.1075 117° Southeast 471 542 35,300 -841 Descending Denver Center
Tue 03:49:49 PM 41.7336 -98.9842 116° Southeast 468 539 35,000 -168 Descending Minneapolis Center
Tue 03:50:50 PM 41.6728 -98.8289 118° Southeast 467 537 35,000 -732 Level Minneapolis Center
Tue 03:51:52 PM 41.6133 -98.6744 117° Southeast 467 537 33,500 -1,548 Descending Minneapolis Center
Tue 03:52:54 PM 41.5547 -98.5225 117° Southeast 463 533 31,800 -1,694 Descending Minneapolis Center
Tue 03:53:56 PM 41.4964 -98.3697 117° Southeast 457 526 30,000 -1,935 Descending Minneapolis Center
Tue 03:54:58 PM 41.4231 -98.1831 118° Southeast 466 536 27,800 -1,887 Descending Minneapolis Center
Tue 03:56:00 PM 41.3650 -98.0383 118° Southeast 462 532 26,100 -1,902 Descending Minneapolis Center
Tue 03:57:01 PM 41.3056 -97.8875 118° Southeast 448 516 23,900 -2,098 Descending Minneapolis Center
Tue 03:58:03 PM 41.2500 -97.7464 118° Southeast 434 499 21,800 -2,032 Descending Minneapolis Center
Tue 03:59:05 PM 41.1961 -97.6142 118° Southeast 415 478 19,700 -2,371 Descending Minneapolis Center
Tue 04:00:07 PM 41.1258 -97.5111 132° Southeast 382 440 16,900 -3,153 Descending Minneapolis Center
Tue 04:01:03 PM 41.0303 -97.4164 143° Southeast 357 411 13,500 -2,872 Descending Minneapolis Center
Tue 04:02:04 PM 40.9631 -97.3314 136° Southeast 336 387 11,300 -1,860 Descending Minneapolis Center
Tue 04:03:12 PM 40.9736 -97.2122 83° East 311 358 9,500 -2,213 Descending Minneapolis Center
Tue 04:04:06 PM 40.9589 -97.1031 100° East 297 342 6,800 -2,613 Descending Minneapolis Center
Tue 04:05:16 PM 40.9706 -96.9967 82° East 293 337 4,100 -1,884 Descending Minneapolis Center
Tue 04:06:07 PM 40.9314 -96.9100 121° Southeast 238 274 3,000 -589 Descending Minneapolis Center
Tue 04:07:08 PM 40.9103 -96.8350 110° East 204 235 3,000 -492 Level Minneapolis Center
Tue 04:08:09 PM 40.8803 -96.7886 131° Southeast 151 174 2,000 -984 Descending Minneapolis Center
Tue 04:10:00 PM 40.8500 -96.7500 90° East  Level FlightAware Approximate
Tue 04:17:00 PM 40.8509 -96.7591 90° East  Level Estimated

Login

Don't have an account? Register now (free) for customized features, flight alerts, and more!